Time;durP1;ratioP1;P1;durP2;ratioP2;P2;SDS_P1;SDS_P2;PMS_P1;PMS_P2;Temp;Humidity;BMP_temperature;BMP_pressure;BME280_temperature;BME280_humidity;BME280_pressure;Samples;Min_cycle;Max_cycle;Signal;HPM_P1;HPM_P2
2022/10/12 00:01:59;;;;;;;10.27;5.97;;;8.10;99.90;;;;;;4920676;29;20206;-71
2022/10/12 00:04:24;;;;;;;9.23;4.93;;;8.10;99.90;;;;;;4914570;29;20210;-71
2022/10/12 00:06:50;;;;;;;11.07;5.30;;;8.10;99.90;;;;;;4914646;29;20205;-71
2022/10/12 00:09:15;;;;;;;17.07;7.10;;;8.10;99.90;;;;;;4933168;29;20218;-71
2022/10/12 00:11:42;;;;;;;10.60;5.87;;;8.10;99.90;;;;;;4922322;28;20302;-72
2022/10/12 00:14:08;;;;;;;11.97;7.13;;;8.10;99.90;;;;;;4917418;29;20202;-72
2022/10/12 00:16:33;;;;;;;11.23;6.53;;;8.00;99.90;;;;;;4915453;29;20635;-69
2022/10/12 00:18:59;;;;;;;11.33;6.20;;;8.10;99.90;;;;;;4915977;29;20223;-66
2022/10/12 00:21:26;;;;;;;10.53;6.97;;;8.10;99.90;;;;;;4914777;28;20203;-72
2022/10/12 00:23:56;;;;;;;13.90;7.30;;;8.00;99.90;;;;;;4917965;29;20270;-70
2022/10/12 00:26:23;;;;;;;19.90;8.90;;;8.00;99.90;;;;;;4912432;29;20218;-70
2022/10/12 00:28:54;;;;;;;13.13;8.43;;;7.90;99.90;;;;;;4915321;29;20290;-74
2022/10/12 00:31:21;;;;;;;17.77;10.97;;;7.90;99.90;;;;;;4918888;29;20203;-73
2022/10/12 00:33:47;;;;;;;15.37;9.47;;;7.80;99.90;;;;;;4919546;29;20277;-73
2022/10/12 00:36:22;;;;;;;16.67;9.17;;;7.80;99.90;;;;;;4922022;29;20276;-74
2022/10/12 00:38:49;;;;;;;14.27;9.93;;;7.70;99.90;;;;;;4914020;29;20174;-74
2022/10/12 00:41:18;;;;;;;15.50;10.67;;;7.60;99.90;;;;;;4919270;29;20729;-73
2022/10/12 00:43:45;;;;;;;20.37;9.27;;;7.60;99.90;;;;;;4910988;29;20686;-74
2022/10/12 00:46:19;;;;;;;16.47;9.03;;;7.50;99.90;;;;;;4916605;29;20729;-73
2022/10/12 00:48:48;;;;;;;15.53;8.60;;;7.50;99.90;;;;;;4912850;29;20213;-71
2022/10/12 00:51:15;;;;;;;15.30;9.10;;;7.50;99.90;;;;;;4918476;29;20199;-73
2022/10/12 00:53:46;;;;;;;14.47;8.57;;;7.50;99.90;;;;;;4912540;29;20225;-70
2022/10/12 00:56:17;;;;;;;15.03;8.47;;;7.60;99.90;;;;;;4915068;28;20712;-74
2022/10/12 00:58:43;;;;;;;11.33;7.53;;;7.60;99.90;;;;;;4915959;29;20249;-70
2022/10/12 01:01:09;;;;;;;15.73;9.10;;;7.60;99.90;;;;;;4912692;28;20207;-64
2022/10/12 01:03:35;;;;;;;11.77;7.77;;;7.60;99.90;;;;;;4915751;29;20192;-76
2022/10/12 01:06:02;;;;;;;13.73;7.70;;;7.60;99.90;;;;;;4922904;29;20188;-79
2022/10/12 01:08:28;;;;;;;10.10;6.97;;;7.60;99.90;;;;;;4916892;29;20588;-76
2022/10/12 01:10:54;;;;;;;14.07;8.13;;;7.60;99.90;;;;;;4921226;29;20286;-71
2022/10/12 01:13:20;;;;;;;9.37;6.50;;;7.70;99.90;;;;;;4917962;29;20225;-72
2022/10/12 01:16:01;;;;;;;9.83;6.67;;;7.70;99.90;;;;;;4923170;29;20223;-74
2022/10/12 01:18:40;;;;;;;9.47;5.70;;;7.60;99.90;;;;;;4918757;29;20211;-74
2022/10/12 01:21:20;;;;;;;7.93;5.57;;;7.50;99.90;;;;;;4920377;29;20195;-72
2022/10/12 01:24:17;;;;;;;10.30;7.07;;;7.50;99.90;;;;;;4921226;29;20183;-71
2022/10/12 01:27:01;;;;;;;11.93;7.40;;;7.50;99.90;;;;;;4916924;29;20655;-75
2022/10/12 01:29:33;;;;;;;13.43;7.30;;;7.50;99.90;;;;;;4919685;29;20190;-77
2022/10/12 01:32:22;;;;;;;12.07;7.70;;;7.50;99.90;;;;;;4920818;29;20278;-75
2022/10/12 01:35:04;;;;;;;11.57;7.03;;;7.50;99.90;;;;;;4919269;29;20190;-73
2022/10/12 01:37:49;;;;;;;13.53;6.97;;;7.50;99.90;;;;;;4925103;29;20202;-72
2022/10/12 01:40:28;;;;;;;11.23;7.27;;;7.50;99.90;;;;;;4911108;29;20210;-72
2022/10/12 01:42:56;;;;;;;11.03;7.13;;;7.50;99.90;;;;;;4915393;29;20299;-72
2022/10/12 01:45:21;;;;;;;10.73;6.57;;;7.50;99.90;;;;;;4929815;29;20705;-72
2022/10/12 01:47:53;;;;;;;10.60;7.43;;;7.50;99.90;;;;;;4921668;29;20333;-73
2022/10/12 01:50:21;;;;;;;14.93;6.83;;;7.50;99.90;;;;;;4915505;29;20228;-68
2022/10/12 01:52:55;;;;;;;11.07;6.10;;;7.50;99.90;;;;;;4920473;28;20232;-70
2022/10/12 01:55:42;;;;;;;10.77;5.80;;;7.50;99.90;;;;;;4916325;29;20843;-70
2022/10/12 01:58:41;;;;;;;8.27;6.37;;;7.40;99.90;;;;;;4919954;29;20204;-70
2022/10/12 02:01:19;;;;;;;10.43;6.23;;;7.40;99.90;;;;;;4919892;29;20191;-74
2022/10/12 02:04:08;;;;;;;7.93;4.87;;;7.40;99.90;;;;;;4921585;29;20194;-70
2022/10/12 02:06:39;;;;;;;10.20;6.10;;;7.40;99.90;;;;;;4919905;29;20293;-73
2022/10/12 02:09:15;;;;;;;9.53;5.63;;;7.40;99.90;;;;;;4918564;29;20622;-72
2022/10/12 02:11:43;;;;;;;12.27;6.80;;;7.40;99.90;;;;;;4911963;29;20207;-72
2022/10/12 02:14:15;;;;;;;10.83;5.97;;;7.40;99.90;;;;;;4918444;29;20220;-71
2022/10/12 02:16:50;;;;;;;11.13;5.93;;;7.40;99.90;;;;;;4915931;29;20203;-70
2022/10/12 02:19:21;;;;;;;10.00;6.30;;;7.40;99.90;;;;;;4919214;29;20223;-70
2022/10/12 02:21:49;;;;;;;11.77;5.93;;;7.40;99.90;;;;;;4912252;29;20235;-70
2022/10/12 02:24:16;;;;;;;7.83;5.60;;;7.40;99.90;;;;;;4918731;29;20548;-70
2022/10/12 02:26:45;;;;;;;9.07;5.57;;;7.50;99.90;;;;;;4920792;29;20543;-76
2022/10/12 02:29:16;;;;;;;11.33;6.53;;;7.50;99.90;;;;;;4916980;29;20250;-70
2022/10/12 02:31:45;;;;;;;9.57;6.13;;;7.50;99.90;;;;;;4916746;29;20283;-72
2022/10/12 02:34:22;;;;;;;10.90;6.47;;;7.50;99.90;;;;;;4916172;29;20191;-71
2022/10/12 02:37:14;;;;;;;10.63;5.90;;;7.40;99.90;;;;;;4921374;28;20687;-69
2022/10/12 02:39:47;;;;;;;10.43;5.97;;;7.40;99.90;;;;;;4920219;28;20271;-70
2022/10/12 02:42:19;;;;;;;10.27;5.73;;;7.40;99.90;;;;;;4916233;29;20207;-71
2022/10/12 02:44:46;;;;;;;9.97;5.53;;;7.40;99.90;;;;;;4917764;29;20194;-72
2022/10/12 02:47:13;;;;;;;9.33;6.13;;;7.40;99.90;;;;;;4917608;29;20226;-71
2022/10/12 02:49:40;;;;;;;9.33;5.47;;;7.40;99.90;;;;;;4925391;29;21029;-73
2022/10/12 02:52:06;;;;;;;9.77;6.07;;;7.40;99.90;;;;;;4933961;29;20214;-72
2022/10/12 02:54:32;;;;;;;8.70;5.17;;;7.40;99.90;;;;;;4914152;29;20187;-73
2022/10/12 02:56:57;;;;;;;9.77;5.97;;;7.40;99.90;;;;;;4936694;29;20267;-73
2022/10/12 02:59:23;;;;;;;8.40;5.47;;;7.40;99.90;;;;;;4909938;29;20190;-72
2022/10/12 03:01:48;;;;;;;12.60;6.23;;;7.30;99.90;;;;;;4926753;29;20285;-72
2022/10/12 03:04:14;;;;;;;7.43;5.20;;;7.30;99.90;;;;;;4919901;29;20206;-72
2022/10/12 03:06:41;;;;;;;11.53;6.67;;;7.40;99.90;;;;;;4937103;29;20629;-72
2022/10/12 03:09:07;;;;;;;11.63;5.30;;;7.30;99.90;;;;;;4917183;29;20235;-71
2022/10/12 03:11:33;;;;;;;7.07;5.23;;;7.30;99.90;;;;;;4929623;29;20230;-71
2022/10/12 03:13:58;;;;;;;11.73;6.23;;;7.30;99.90;;;;;;4915008;29;20187;-71
2022/10/12 03:16:24;;;;;;;7.20;5.30;;;7.20;99.90;;;;;;4931535;29;20211;-71
2022/10/12 03:18:49;;;;;;;10.60;6.10;;;7.20;99.90;;;;;;4920742;29;20628;-71
2022/10/12 03:21:15;;;;;;;14.90;6.30;;;7.20;99.90;;;;;;4941258;29;20199;-71
2022/10/12 03:23:41;;;;;;;16.50;6.13;;;7.20;99.90;;;;;;4928222;29;20211;-72
2022/10/12 03:26:06;;;;;;;10.77;5.70;;;7.20;99.90;;;;;;4939825;29;20239;-70
2022/10/12 03:28:32;;;;;;;9.90;5.60;;;7.20;99.90;;;;;;4919129;28;20234;-70
2022/10/12 03:30:58;;;;;;;10.47;5.47;;;7.20;99.90;;;;;;4925247;29;20195;-70
2022/10/12 03:33:24;;;;;;;10.33;5.33;;;7.10;99.90;;;;;;4917476;29;20698;-70
2022/10/12 03:35:49;;;;;;;12.27;6.17;;;7.10;99.90;;;;;;4945274;29;20190;-70
2022/10/12 03:38:16;;;;;;;7.17;5.37;;;7.10;99.90;;;;;;4930215;29;20233;-70
2022/10/12 03:40:42;;;;;;;8.67;6.30;;;7.10;99.90;;;;;;4941085;29;20270;-70
2022/10/12 03:43:08;;;;;;;7.93;5.23;;;7.20;99.90;;;;;;4917301;29;20203;-70
2022/10/12 03:45:34;;;;;;;11.13;5.23;;;7.10;99.90;;;;;;4940403;29;20226;-70
2022/10/12 03:48:00;;;;;;;8.70;5.97;;;7.10;99.90;;;;;;4920273;29;20688;-78
2022/10/12 03:50:26;;;;;;;11.80;5.63;;;7.10;99.90;;;;;;4919348;29;20947;-74
2022/10/12 03:52:51;;;;;;;11.07;5.93;;;7.10;99.90;;;;;;4924033;29;20233;-71
2022/10/12 03:55:17;;;;;;;8.73;6.13;;;7.10;99.90;;;;;;4912483;29;20223;-71
2022/10/12 03:57:44;;;;;;;9.93;5.90;;;7.00;99.90;;;;;;4912892;29;20211;-71
2022/10/12 04:00:10;;;;;;;12.07;6.40;;;6.90;99.90;;;;;;4917576;29;20761;-74
2022/10/12 04:02:36;;;;;;;10.53;5.70;;;6.90;99.90;;;;;;4931423;29;20277;-75
2022/10/12 04:05:02;;;;;;;9.90;5.80;;;6.90;99.90;;;;;;4926775;29;20203;-72
2022/10/12 04:07:27;;;;;;;9.53;6.97;;;6.90;99.90;;;;;;4933036;29;20288;-71
2022/10/12 04:09:53;;;;;;;9.70;5.77;;;6.80;99.90;;;;;;4918191;29;20223;-71
2022/10/12 04:12:18;;;;;;;11.17;6.23;;;6.80;99.90;;;;;;4925856;29;20231;-71
2022/10/12 04:14:44;;;;;;;8.67;5.97;;;6.90;99.90;;;;;;4908464;29;20223;-70
2022/10/12 04:17:09;;;;;;;11.27;6.07;;;6.90;99.90;;;;;;4920237;29;20726;-71
2022/10/12 04:19:35;;;;;;;13.23;5.83;;;6.90;99.90;;;;;;4921946;29;20644;-71
2022/10/12 04:22:01;;;;;;;8.33;5.73;;;6.90;99.90;;;;;;4923418;29;20218;-71
2022/10/12 04:24:26;;;;;;;12.83;6.63;;;6.90;99.90;;;;;;4914288;29;20325;-71
2022/10/12 04:26:51;;;;;;;12.93;7.00;;;6.90;99.90;;;;;;4933249;28;20670;-71
2022/10/12 04:29:17;;;;;;;12.13;7.40;;;6.90;99.90;;;;;;4921904;29;20211;-72
2022/10/12 04:31:42;;;;;;;14.80;7.37;;;6.90;99.90;;;;;;4936296;29;20214;-71
2022/10/12 04:34:09;;;;;;;11.80;6.60;;;6.90;99.90;;;;;;4914022;29;20614;-71
2022/10/12 04:36:34;;;;;;;10.97;5.87;;;6.90;99.90;;;;;;4927365;29;20200;-71
2022/10/12 04:39:00;;;;;;;11.07;6.43;;;6.90;99.90;;;;;;4914023;29;20211;-70
2022/10/12 04:41:25;;;;;;;10.73;6.93;;;6.90;99.90;;;;;;4917236;29;20294;-71
2022/10/12 04:43:54;;;;;;;13.47;6.70;;;6.90;99.90;;;;;;4912317;29;20246;-71
2022/10/12 04:46:20;;;;;;;11.30;6.90;;;6.90;99.90;;;;;;4939834;29;20199;-71
2022/10/12 04:48:45;;;;;;;11.93;6.17;;;6.90;99.90;;;;;;4913403;29;20717;-71
2022/10/12 04:51:11;;;;;;;11.50;6.13;;;6.80;99.90;;;;;;4944412;29;20257;-71
2022/10/12 04:53:36;;;;;;;15.27;7.43;;;6.80;99.90;;;;;;4911448;28;20238;-71
2022/10/12 04:56:03;;;;;;;14.77;6.80;;;6.70;99.90;;;;;;4937332;29;20621;-71
2022/10/12 04:58:29;;;;;;;11.60;7.27;;;6.80;99.90;;;;;;4919293;29;20714;-71
2022/10/12 05:00:54;;;;;;;9.37;6.57;;;6.70;99.90;;;;;;4934689;29;20195;-74
2022/10/12 05:03:20;;;;;;;12.70;7.50;;;6.70;99.90;;;;;;4920409;29;20245;-74
2022/10/12 05:05:46;;;;;;;10.80;7.10;;;6.70;99.90;;;;;;4943511;29;20202;-72
2022/10/12 05:08:11;;;;;;;10.67;7.57;;;6.70;99.90;;;;;;4915550;28;20348;-72
2022/10/12 05:10:38;;;;;;;18.17;8.50;;;6.80;99.90;;;;;;4941156;29;20290;-73
2022/10/12 05:13:04;;;;;;;7.53;6.43;;;6.80;99.90;;;;;;4925686;29;20207;-73
2022/10/12 05:15:30;;;;;;;10.07;6.73;;;6.80;99.90;;;;;;4921462;29;20228;-72
2022/10/12 05:17:55;;;;;;;13.20;8.20;;;6.80;99.90;;;;;;4931972;29;20199;-72
2022/10/12 05:20:21;;;;;;;12.20;8.00;;;6.80;99.90;;;;;;4927039;29;20198;-73
2022/10/12 05:22:46;;;;;;;13.73;6.73;;;6.80;99.90;;;;;;4930213;29;20207;-73
2022/10/12 05:25:12;;;;;;;12.90;7.57;;;6.80;99.90;;;;;;4907827;29;20207;-73
2022/10/12 05:27:38;;;;;;;12.90;6.73;;;6.80;99.90;;;;;;4930910;29;20218;-73
2022/10/12 05:30:04;;;;;;;11.77;7.10;;;6.80;99.90;;;;;;4911562;29;20222;-72
2022/10/12 05:32:30;;;;;;;15.20;9.63;;;6.80;99.90;;;;;;4934562;29;20199;-74
2022/10/12 05:34:55;;;;;;;19.00;10.27;;;6.80;99.90;;;;;;4909614;28;20195;-72
2022/10/12 05:37:21;;;;;;;13.47;7.30;;;6.80;99.90;;;;;;4940262;29;20640;-73
2022/10/12 05:39:48;;;;;;;9.00;7.27;;;6.80;99.90;;;;;;4933221;28;20278;-75
2022/10/12 05:42:14;;;;;;;11.80;7.50;;;6.90;99.90;;;;;;4922205;29;20469;-76
2022/10/12 05:44:40;;;;;;;11.87;6.93;;;6.90;99.90;;;;;;4915461;29;20191;-76
2022/10/12 05:47:05;;;;;;;12.63;8.17;;;6.90;99.90;;;;;;4927196;29;20198;-73
2022/10/12 05:49:31;;;;;;;10.10;6.77;;;6.90;99.90;;;;;;4910420;29;20646;-76
2022/10/12 05:51:56;;;;;;;10.83;7.30;;;6.90;99.90;;;;;;4938121;29;20273;-77
2022/10/12 05:54:22;;;;;;;12.20;6.73;;;6.90;99.90;;;;;;4917049;28;20219;-76
2022/10/12 05:56:47;;;;;;;11.33;6.90;;;7.00;99.90;;;;;;4936233;29;20206;-79
2022/10/12 05:59:13;;;;;;;10.97;8.03;;;7.00;99.90;;;;;;4921177;29;20214;-75
2022/10/12 06:01:38;;;;;;;13.87;7.83;;;7.10;99.90;;;;;;4939736;28;20206;-74
2022/10/12 06:04:04;;;;;;;11.03;6.63;;;7.10;99.90;;;;;;4920255;29;20207;-76
2022/10/12 06:06:30;;;;;;;10.27;6.80;;;7.10;99.90;;;;;;4930279;29;20203;-74
2022/10/12 06:08:55;;;;;;;14.10;7.80;;;7.10;99.90;;;;;;4914331;29;20234;-74
2022/10/12 06:11:21;;;;;;;11.83;7.23;;;7.10;99.90;;;;;;4923279;29;20201;-72
2022/10/12 06:13:46;;;;;;;17.43;11.40;;;7.20;99.90;;;;;;4920606;29;20499;-71
2022/10/12 06:16:12;;;;;;;13.63;8.67;;;7.20;99.90;;;;;;4939849;29;20203;-70
2022/10/12 06:18:37;;;;;;;13.63;8.17;;;7.30;99.90;;;;;;4923150;28;20655;-71
2022/10/12 06:21:03;;;;;;;13.17;7.90;;;7.30;99.90;;;;;;4936233;29;20210;-70
2022/10/12 06:23:28;;;;;;;16.13;8.50;;;7.30;99.90;;;;;;4931342;29;20269;-71
2022/10/12 06:25:54;;;;;;;15.13;8.07;;;7.30;99.90;;;;;;4919904;29;20211;-72
2022/10/12 06:28:20;;;;;;;11.33;6.97;;;7.40;99.90;;;;;;4931099;29;20286;-72
2022/10/12 06:30:52;;;;;;;11.37;7.10;;;7.40;99.90;;;;;;4940334;29;20601;-72
2022/10/12 06:33:17;;;;;;;12.77;7.60;;;7.50;99.90;;;;;;4916605;29;20203;-73
2022/10/12 06:35:43;;;;;;;12.97;7.33;;;7.50;99.90;;;;;;4947198;29;20197;-72
2022/10/12 06:38:08;;;;;;;9.83;7.50;;;7.60;99.90;;;;;;4916484;28;20204;-73
2022/10/12 06:40:34;;;;;;;13.73;7.27;;;7.60;99.90;;;;;;4913410;29;20206;-73
2022/10/12 06:43:01;;;;;;;9.80;7.30;;;7.70;99.90;;;;;;4908171;29;20196;-71
2022/10/12 06:45:28;;;;;;;13.17;8.13;;;7.80;99.90;;;;;;4910269;29;20191;-71
2022/10/12 06:47:54;;;;;;;15.90;8.87;;;7.90;99.90;;;;;;4939899;29;20278;-72
2022/10/12 06:50:19;;;;;;;11.50;7.00;;;8.00;99.90;;;;;;4929081;29;20810;-71
2022/10/12 06:52:46;;;;;;;13.00;8.50;;;8.10;99.90;;;;;;4930556;28;20222;-73
2022/10/12 06:55:12;;;;;;;15.67;8.13;;;8.10;99.90;;;;;;4912110;29;20528;-73
2022/10/12 06:57:37;;;;;;;19.77;8.60;;;8.20;99.90;;;;;;4942295;29;20546;-74
2022/10/12 07:00:05;;;;;;;18.57;9.87;;;8.30;99.90;;;;;;4920912;28;20184;-72
2022/10/12 07:02:30;;;;;;;13.90;10.00;;;8.40;99.90;;;;;;4925044;29;20195;-72
2022/10/12 07:04:56;;;;;;;19.30;10.80;;;8.50;99.90;;;;;;4917039;29;20555;-72
2022/10/12 07:07:21;;;;;;;20.47;11.00;;;8.50;99.90;;;;;;4939797;29;20204;-73
2022/10/12 07:09:47;;;;;;;16.10;11.10;;;8.60;99.90;;;;;;4920382;29;20201;-72
2022/10/12 07:12:12;;;;;;;13.33;8.40;;;8.80;99.90;;;;;;4938351;29;20191;-71
2022/10/12 07:14:38;;;;;;;20.00;9.20;;;8.80;99.90;;;;;;4912770;28;20207;-73
2022/10/12 07:17:03;;;;;;;16.30;8.27;;;8.90;99.90;;;;;;4939562;29;20215;-74
2022/10/12 07:19:29;;;;;;;14.17;7.63;;;8.90;99.90;;;;;;4916039;29;21088;-73
2022/10/12 07:21:54;;;;;;;13.50;7.13;;;9.10;99.90;;;;;;4918228;28;20300;-73
2022/10/12 07:24:20;;;;;;;11.77;7.80;;;9.20;99.90;;;;;;4918658;29;20262;-72
2022/10/12 07:26:45;;;;;;;11.93;6.10;;;9.40;99.90;;;;;;4937967;29;20242;-72
2022/10/12 07:29:11;;;;;;;12.60;7.77;;;9.50;99.90;;;;;;4920754;29;20604;-73
2022/10/12 07:31:37;;;;;;;16.03;9.13;;;9.60;99.90;;;;;;4942677;29;20906;-73
2022/10/12 07:34:02;;;;;;;10.63;6.63;;;9.70;99.90;;;;;;4919512;29;20260;-71
2022/10/12 07:36:28;;;;;;;10.97;6.40;;;9.80;99.90;;;;;;4924594;29;20197;-71
2022/10/12 07:38:53;;;;;;;9.83;5.37;;;9.90;99.90;;;;;;4920679;29;20629;-72
2022/10/12 07:41:19;;;;;;;9.27;5.47;;;10.00;99.90;;;;;;4933325;29;20193;-72
2022/10/12 07:43:44;;;;;;;13.07;6.70;;;10.10;99.90;;;;;;4923246;29;20707;-72
2022/10/12 07:46:10;;;;;;;13.87;6.00;;;10.20;99.90;;;;;;4929947;29;20951;-74
2022/10/12 07:48:36;;;;;;;10.83;5.77;;;10.30;99.90;;;;;;4918382;29;20212;-71
2022/10/12 07:51:07;;;;;;;11.60;5.40;;;10.40;99.90;;;;;;4921449;29;20196;-76
2022/10/12 07:53:34;;;;;;;13.27;5.90;;;10.50;99.90;;;;;;4913666;29;20449;-77
2022/10/12 07:56:05;;;;;;;15.77;6.50;;;10.60;99.90;;;;;;4925688;29;20252;-77
2022/10/12 07:58:31;;;;;;;15.80;7.30;;;10.70;99.90;;;;;;4933240;29;20213;-77
2022/10/12 08:01:06;;;;;;;12.03;5.43;;;10.80;99.90;;;;;;4920678;29;20634;-78
2022/10/12 08:03:31;;;;;;;10.63;5.43;;;10.90;99.90;;;;;;4916400;29;20704;-78
2022/10/12 08:05:57;;;;;;;8.07;5.23;;;10.90;99.90;;;;;;4916420;29;20207;-81
2022/10/12 08:08:22;;;;;;;9.43;4.90;;;11.00;99.90;;;;;;4921287;29;20242;-78
2022/10/12 08:10:48;;;;;;;14.50;5.73;;;11.10;99.90;;;;;;4917456;29;20586;-80
2022/10/12 08:13:13;;;;;;;11.93;5.30;;;11.20;99.90;;;;;;4914425;28;20518;-82
2022/10/12 08:15:39;;;;;;;15.23;5.33;;;11.30;99.90;;;;;;4923795;29;20275;-79
2022/10/12 08:18:04;;;;;;;15.53;6.03;;;11.30;99.90;;;;;;4921086;29;20322;-76
2022/10/12 08:20:30;;;;;;;13.73;4.83;;;11.50;99.90;;;;;;4923049;29;20818;-73
2022/10/12 08:22:55;;;;;;;12.70;4.73;;;11.60;99.90;;;;;;4922599;29;20787;-74
2022/10/12 08:25:21;;;;;;;11.77;5.70;;;11.70;99.90;;;;;;4920912;29;20203;-74
2022/10/12 08:27:47;;;;;;;11.87;5.13;;;11.80;99.90;;;;;;4940217;28;20359;-74
2022/10/12 08:30:14;;;;;;;10.33;5.40;;;11.90;99.90;;;;;;4910413;29;20087;-76
2022/10/12 08:32:40;;;;;;;9.13;4.33;;;11.90;99.90;;;;;;4938674;29;20470;-71
2022/10/12 08:35:06;;;;;;;6.73;4.47;;;11.90;99.90;;;;;;4914644;29;20185;-75
2022/10/12 08:37:32;;;;;;;13.48;5.15;;;11.90;99.90;;;;;;4929830;29;20935;-69
2022/10/12 08:39:57;;;;;;;15.53;5.00;;;12.10;99.90;;;;;;4908124;29;20213;-71
2022/10/12 08:42:42;;;;;;;6.70;4.57;;;12.10;99.90;;;;;;4940798;29;20241;-70
2022/10/12 08:45:32;;;;;;;8.97;4.97;;;12.10;99.90;;;;;;4926300;29;20171;-70
2022/10/12 08:48:08;;;;;;;11.47;4.60;;;12.50;99.90;;;;;;4921486;29;20220;-70
2022/10/12 08:50:39;;;;;;;14.07;6.37;;;12.50;99.90;;;;;;4917724;29;20222;-70
2022/10/12 08:53:47;;;;;;;8.40;5.10;;;12.60;99.90;;;;;;4917468;29;20273;-70
2022/10/12 08:56:17;;;;;;;9.50;4.50;;;12.60;99.90;;;;;;4909153;29;20208;-71
2022/10/12 08:58:45;;;;;;;11.40;4.90;;;12.60;99.90;;;;;;4926629;29;20605;-71
2022/10/12 09:01:35;;;;;;;9.97;4.67;;;12.70;99.90;;;;;;4918349;29;20208;-70
2022/10/12 09:04:14;;;;;;;13.13;4.10;;;12.70;99.90;;;;;;4929890;29;20714;-70
2022/10/12 09:07:15;;;;;;;11.97;4.23;;;12.80;99.90;;;;;;4910768;29;20279;-70
2022/10/12 09:10:02;;;;;;;14.50;4.47;;;12.90;99.90;;;;;;4925956;29;20216;-71
2022/10/12 09:13:18;;;;;;;11.63;3.50;;;13.00;99.90;;;;;;4920227;29;20183;-70
2022/10/12 09:15:58;;;;;;;13.37;4.53;;;13.00;99.90;;;;;;4867160;29;20232;-71
2022/10/12 09:18:35;;;;;;;7.90;3.67;;;13.10;99.90;;;;;;4912765;29;20687;-70
2022/10/12 09:21:05;;;;;;;7.87;3.93;;;13.20;99.90;;;;;;4917535;29;20221;-70
2022/10/12 09:23:37;;;;;;;10.90;3.90;;;13.30;99.90;;;;;;4931927;29;20205;-70
2022/10/12 09:26:18;;;;;;;8.90;3.60;;;13.20;99.90;;;;;;4908616;29;20244;-70
2022/10/12 09:28:48;;;;;;;11.93;3.87;;;13.20;99.90;;;;;;4909232;29;20312;-70
2022/10/12 09:31:41;;;;;;;10.70;3.73;;;13.20;99.90;;;;;;4937754;28;20562;-70
2022/10/12 09:34:08;;;;;;;12.43;3.47;;;13.40;99.90;;;;;;4918695;28;20209;-69
2022/10/12 09:36:37;;;;;;;6.27;3.50;;;13.40;99.90;;;;;;4945324;29;20195;-69
2022/10/12 09:39:06;;;;;;;7.63;3.17;;;13.40;99.90;;;;;;4909239;29;20202;-70
2022/10/12 09:41:39;;;;;;;10.90;3.53;;;13.40;99.90;;;;;;4933507;29;20203;-70
2022/10/12 09:44:06;;;;;;;10.43;3.27;;;13.20;99.90;;;;;;4927442;29;20216;-70
2022/10/12 09:46:41;;;;;;;10.63;3.80;;;13.30;99.90;;;;;;4945472;28;20199;-69
2022/10/12 09:49:07;;;;;;;5.97;3.30;;;13.70;99.90;;;;;;4908346;29;20261;-69
2022/10/12 09:51:33;;;;;;;7.47;3.47;;;13.80;99.90;;;;;;4944328;29;20261;-69
2022/10/12 09:54:02;;;;;;;9.67;3.63;;;13.80;99.90;;;;;;4928749;29;20236;-69
2022/10/12 09:56:50;;;;;;;8.37;3.27;;;14.00;99.90;;;;;;4929186;29;20258;-69
2022/10/12 09:59:28;;;;;;;15.27;3.70;;;14.10;99.90;;;;;;4926811;29;21006;-69
2022/10/12 10:02:09;;;;;;;10.80;4.00;;;14.10;99.90;;;;;;4915589;29;20189;-70
2022/10/12 10:04:35;;;;;;;8.63;2.77;;;14.20;99.90;;;;;;4922722;29;20252;-69
2022/10/12 10:07:24;;;;;;;7.07;2.70;;;14.40;99.90;;;;;;4933717;29;20207;-69
2022/10/12 10:10:15;;;;;;;8.23;2.50;;;14.60;99.90;;;;;;4916143;29;20218;-70
2022/10/12 10:12:55;;;;;;;10.00;3.20;;;14.60;99.90;;;;;;4917378;29;20248;-69
2022/10/12 10:15:28;;;;;;;8.80;2.47;;;14.70;99.90;;;;;;4916830;29;20237;-69
2022/10/12 10:17:59;;;;;;;5.43;2.20;;;14.80;99.90;;;;;;4945133;29;20562;-69
2022/10/12 10:20:39;;;;;;;8.47;2.47;;;14.90;99.90;;;;;;4928714;29;20210;-70
2022/10/12 10:23:05;;;;;;;6.17;2.73;;;14.80;99.90;;;;;;4924156;29;20192;-70
2022/10/12 10:25:32;;;;;;;10.00;2.33;;;15.00;99.60;;;;;;4921940;28;20184;-70
2022/10/12 10:28:33;;;;;;;9.93;2.43;;;15.10;99.80;;;;;;4935869;29;20594;-70
2022/10/12 10:31:05;;;;;;;6.60;2.50;;;15.00;99.40;;;;;;4916368;29;20295;-69
2022/10/12 10:33:33;;;;;;;7.07;2.47;;;15.10;99.30;;;;;;4910856;29;20201;-70
2022/10/12 10:36:03;;;;;;;10.67;4.00;;;15.10;99.90;;;;;;4917547;29;20199;-70
2022/10/12 10:38:54;;;;;;;8.40;2.73;;;15.40;99.90;;;;;;4927600;29;20619;-70
2022/10/12 10:41:21;;;;;;;13.00;3.20;;;15.60;98.80;;;;;;4925035;29;20207;-70
2022/10/12 10:43:48;;;;;;;7.80;2.13;;;15.80;98.40;;;;;;4934621;29;20210;-71
2022/10/12 10:46:21;;;;;;;6.63;2.23;;;16.00;97.60;;;;;;4909743;29;20549;-70
2022/10/12 10:49:28;;;;;;;7.23;2.20;;;16.00;97.50;;;;;;4912684;29;20218;-73
2022/10/12 10:51:57;;;;;;;7.47;2.17;;;16.10;97.30;;;;;;4929912;29;20436;-71
2022/10/12 10:54:22;;;;;;;7.03;2.20;;;16.10;99.30;;;;;;4931876;28;20820;-71
2022/10/12 10:56:57;;;;;;;5.53;2.17;;;16.10;99.90;;;;;;4928896;29;20195;-71
2022/10/12 10:59:44;;;;;;;6.37;1.93;;;16.10;99.90;;;;;;4907916;29;20319;-71
2022/10/12 11:02:15;;;;;;;3.90;1.70;;;16.20;99.90;;;;;;4909256;29;20210;-71
2022/10/12 11:04:44;;;;;;;8.83;2.40;;;16.40;99.90;;;;;;4910696;29;20247;-71
2022/10/12 11:07:30;;;;;;;4.83;1.47;;;16.50;99.90;;;;;;4921034;29;20686;-70
2022/10/12 11:09:59;;;;;;;3.43;1.33;;;16.60;99.90;;;;;;4914354;29;20302;-71
2022/10/12 11:12:33;;;;;;;6.33;1.70;;;16.70;96.70;;;;;;4936616;28;20214;-71
2022/10/12 11:15:22;;;;;;;5.30;1.80;;;16.60;97.30;;;;;;4918580;28;20245;-71
2022/10/12 11:17:52;;;;;;;3.10;1.93;;;16.70;99.00;;;;;;4933950;28;20194;-71
2022/10/12 11:20:28;;;;;;;6.83;1.97;;;16.80;99.90;;;;;;4921417;29;20319;-71
2022/10/12 11:23:02;;;;;;;6.30;2.57;;;17.00;99.90;;;;;;4925767;29;20219;-71
2022/10/12 11:25:33;;;;;;;5.70;1.47;;;17.20;99.90;;;;;;4911952;29;20200;-70
2022/10/12 11:27:58;;;;;;;5.13;1.93;;;17.30;99.90;;;;;;4916957;29;20305;-71
2022/10/12 11:30:27;;;;;;;6.40;1.60;;;17.30;99.70;;;;;;4917798;29;20633;-72
2022/10/12 11:33:03;;;;;;;8.30;2.33;;;17.30;96.00;;;;;;4917547;29;20193;-71
2022/10/12 11:35:35;;;;;;;8.27;2.17;;;17.50;95.00;;;;;;4917117;29;20282;-71
2022/10/12 11:38:08;;;;;;;5.73;1.77;;;17.70;99.40;;;;;;4921264;29;20195;-71
2022/10/12 11:40:47;;;;;;;3.30;1.40;;;17.70;98.80;;;;;;4912849;29;20291;-70
2022/10/12 11:43:20;;;;;;;5.37;1.50;;;17.80;99.90;;;;;;4915334;29;20672;-70
2022/10/12 11:45:50;;;;;;;3.30;1.20;;;17.90;99.90;;;;;;4918060;28;20307;-70
2022/10/12 11:48:30;;;;;;;6.77;1.70;;;18.10;99.90;;;;;;4920637;29;20243;-70
2022/10/12 11:50:57;;;;;;;7.60;1.83;;;18.10;98.20;;;;;;4916530;29;20175;-71
2022/10/12 11:53:38;;;;;;;2.80;1.50;;;18.20;98.80;;;;;;4917427;29;20299;-71
2022/10/12 11:56:18;;;;;;;6.60;1.80;;;18.30;99.90;;;;;;4917611;29;20305;-70
2022/10/12 11:58:45;;;;;;;3.17;1.40;;;18.30;99.90;;;;;;4915020;29;20204;-71
2022/10/12 12:01:31;;;;;;;5.43;2.50;;;18.20;99.10;;;;;;4918615;29;20295;-71
2022/10/12 12:04:23;;;;;;;4.03;1.50;;;18.00;98.30;;;;;;4917152;29;20217;-69
2022/10/12 12:06:55;;;;;;;4.37;2.07;;;17.70;98.10;;;;;;4916974;29;20188;-70
2022/10/12 12:09:38;;;;;;;7.47;2.67;;;17.90;99.10;;;;;;4910758;29;20220;-70
2022/10/12 12:12:14;;;;;;;8.33;2.30;;;18.40;99.30;;;;;;4915948;29;20179;-70
2022/10/12 12:14:58;;;;;;;5.80;1.90;;;18.70;99.00;;;;;;4912533;29;20214;-71
2022/10/12 12:17:26;;;;;;;2.50;1.70;;;18.70;98.80;;;;;;4914265;29;20198;-70
2022/10/12 12:19:57;;;;;;;4.10;1.70;;;18.90;96.40;;;;;;4917430;29;20241;-70
2022/10/12 12:22:49;;;;;;;6.53;1.70;;;18.90;99.60;;;;;;4920462;29;20196;-70
2022/10/12 12:25:21;;;;;;;6.70;2.13;;;18.80;99.20;;;;;;4917121;29;20240;-69
2022/10/12 12:28:20;;;;;;;5.80;1.83;;;18.50;99.20;;;;;;4917250;29;20213;-70
2022/10/12 12:31:13;;;;;;;4.57;1.43;;;18.60;99.90;;;;;;4915252;29;20212;-70
2022/10/12 12:33:42;;;;;;;7.53;2.43;;;18.90;99.70;;;;;;4913928;29;20197;-73
2022/10/12 12:36:11;;;;;;;10.20;1.87;;;19.50;99.90;;;;;;4917513;29;20570;-72
2022/10/12 12:38:45;;;;;;;7.57;1.80;;;20.10;99.70;;;;;;4915464;29;20193;-71
2022/10/12 12:41:19;;;;;;;4.47;1.83;;;20.10;95.90;;;;;;4916592;29;20231;-71
2022/10/12 12:43:44;;;;;;;4.60;1.77;;;20.00;97.10;;;;;;4914242;29;20224;-70
2022/10/12 12:46:12;;;;;;;6.90;1.73;;;20.30;98.80;;;;;;4915623;29;20217;-70
2022/10/12 12:48:37;;;;;;;4.70;1.50;;;20.70;98.90;;;;;;4917048;29;20209;-70
2022/10/12 12:51:07;;;;;;;3.17;1.53;;;21.00;98.50;;;;;;4913169;29;20316;-70
2022/10/12 12:53:35;;;;;;;3.67;1.53;;;21.00;94.60;;;;;;4923760;29;20593;-71
2022/10/12 12:56:13;;;;;;;3.53;1.50;;;21.10;92.40;;;;;;4918053;29;20591;-72
2022/10/12 12:59:00;;;;;;;6.90;1.30;;;21.30;95.70;;;;;;4923464;29;20194;-72
2022/10/12 13:02:03;;;;;;;5.60;1.90;;;21.90;95.70;;;;;;4927574;29;20240;-71
2022/10/12 13:04:31;;;;;;;5.13;1.83;;;22.30;95.00;;;;;;4934428;28;20622;-70